KERI/ERI METAR and TAF weather

Enter ICAO airport designator
Station Type Date Time Source
KERI METAR 2019/06/19 06:51 UTC NOAA

KERI 190651Z AUTO 00000KT 10SM FEW036 SCT047 17/15 A2986 RMK AO2 SLP109 T01670150 TSNO


Station Type Date Time Source
KERI Decoded METAR 2019/06/19 06:51 UTC NOAA

ERIE INTERNATIONAL AIRPORT, PA, United States (KERI) 42-05N 080-11W 222M
Jun 19, 2019 - 02:51 AM EDT / 2019.06.19 0651 UTC
Wind: Calm:0
Visibility: 10 mile(s):0
Sky conditions: partly cloudy
Temperature: 62.1 F (16.7 C)
Dew Point: 59.0 F (15.0 C)
Relative Humidity: 89%
Pressure (altimeter): 29.86 in. Hg (1011 hPa)
ob: KERI 190651Z AUTO 00000KT 10SM FEW036 SCT047 17/15 A2986 RMK AO2 SLP109 T01670150 TSNO
cycle: 7

Station Type Date Time Source
KERI TAF 2019/06/19 06:30 UTC NOAA

TAF KERI 190529Z 1906/2006 VRB03KT P6SM SCT250
FM191200 36004KT P6SM OVC100
FM200000 05005KT P6SM OVC100
FM200300 09005KT P6SM OVC050

Example: see airport list